AAL745 KPHL-KRDU
Flight info
| Callsign | AAL745 |
|---|---|
| Flight time | 0h 58m |
| Altitude | 32000 |
| Route | OOD TEBEE HAYDO TRPOD TAQLE3 |
| Aircraft | B738/M-SDE2E3FGHIRWXY/LB1 |
Departure
| Time | 2026-05-07 00:26 |
|---|---|
| Airport | Philadelphia International Airport (KPHL) |
Arrival
| Time | 2026-05-07 01:24 |
|---|---|
| Airport | Raleigh-Durham International Airport (KRDU) |
| Time | Latitude | Longitude | Altitude | Speed | Heading |
|---|---|---|---|---|---|
| 2026-05-07 00:04 | 39.87510 | -75.24358 | 44 ft | 0 kts | 254° |
| 2026-05-07 00:04 | 39.87510 | -75.24359 | 44 ft | 0 kts | 254° |
| 2026-05-07 00:06 | 39.87510 | -75.24360 | 44 ft | 0 kts | 254° |
| 2026-05-07 00:07 | 39.87510 | -75.24361 | 44 ft | 0 kts | 254° |
| 2026-05-07 00:08 | 39.87509 | -75.24361 | 44 ft | 0 kts | 254° |
| 2026-05-07 00:09 | 39.87509 | -75.24362 | 44 ft | 0 kts | 254° |
| 2026-05-07 00:10 | 39.87511 | -75.24356 | 44 ft | 0 kts | 254° |
| 2026-05-07 00:10 | 39.87510 | -75.24356 | 44 ft | 0 kts | 254° |
| 2026-05-07 00:11 | 39.87510 | -75.24357 | 44 ft | 0 kts | 254° |
| 2026-05-07 00:12 | 39.87510 | -75.24358 | 44 ft | 0 kts | 254° |
| 2026-05-07 00:14 | 39.87510 | -75.24359 | 44 ft | 0 kts | 254° |
| 2026-05-07 00:15 | 39.87510 | -75.24360 | 44 ft | 0 kts | 254° |
| 2026-05-07 00:17 | 39.87510 | -75.24357 | 44 ft | 2 kts | 254° |
| 2026-05-07 00:17 | 39.87514 | -75.24338 | 44 ft | 3 kts | 254° |
| 2026-05-07 00:17 | 39.87520 | -75.24313 | 44 ft | 3 kts | 254° |
| 2026-05-07 00:17 | 39.87525 | -75.24289 | 44 ft | 3 kts | 243° |
| 2026-05-07 00:18 | 39.87539 | -75.24270 | 44 ft | 3 kts | 206° |
| 2026-05-07 00:18 | 39.87555 | -75.24266 | 44 ft | 0 kts | 179° |
| 2026-05-07 00:18 | 39.87554 | -75.24266 | 44 ft | 0 kts | 179° |
| 2026-05-07 00:20 | 39.87553 | -75.24266 | 44 ft | 0 kts | 179° |
| 2026-05-07 00:21 | 39.87548 | -75.24266 | 44 ft | 3 kts | 179° |
| 2026-05-07 00:21 | 39.87510 | -75.24260 | 44 ft | 7 kts | 173° |
| 2026-05-07 00:21 | 39.87458 | -75.24237 | 44 ft | 9 kts | 154° |
| 2026-05-07 00:22 | 39.87397 | -75.24199 | 44 ft | 10 kts | 156° |
| 2026-05-07 00:22 | 39.87333 | -75.24173 | 44 ft | 11 kts | 165° |
| 2026-05-07 00:22 | 39.87248 | -75.24144 | 44 ft | 13 kts | 165° |
| 2026-05-07 00:22 | 39.87155 | -75.24113 | 44 ft | 15 kts | 165° |
| 2026-05-07 00:23 | 39.87065 | -75.24082 | 44 ft | 14 kts | 165° |
| 2026-05-07 00:23 | 39.86963 | -75.24048 | 44 ft | 16 kts | 165° |
| 2026-05-07 00:23 | 39.86915 | -75.23981 | 44 ft | 11 kts | 74° |
| 2026-05-07 00:23 | 39.86936 | -75.23883 | 44 ft | 11 kts | 75° |
| 2026-05-07 00:24 | 39.86953 | -75.23783 | 44 ft | 11 kts | 77° |
| 2026-05-07 00:24 | 39.86972 | -75.23680 | 44 ft | 12 kts | 76° |
| 2026-05-07 00:24 | 39.86991 | -75.23576 | 44 ft | 12 kts | 76° |
| 2026-05-07 00:24 | 39.87011 | -75.23470 | 44 ft | 12 kts | 90° |
| 2026-05-07 00:25 | 39.86956 | -75.23412 | 44 ft | 11 kts | 160° |
| 2026-05-07 00:25 | 39.86897 | -75.23414 | 44 ft | 7 kts | 254° |
| 2026-05-07 00:25 | 39.86881 | -75.23502 | 44 ft | 18 kts | 257° |
| 2026-05-07 00:25 | 39.86790 | -75.23959 | 44 ft | 89 kts | 257° |
| 2026-05-07 00:26 | 39.86574 | -75.25040 | 49 ft | 153 kts | 256° |
| 2026-05-07 00:26 | 39.86294 | -75.26410 | 733 ft | 157 kts | 256° |
| 2026-05-07 00:26 | 39.85809 | -75.27679 | 1528 ft | 169 kts | 229° |
| 2026-05-07 00:26 | 39.84835 | -75.28722 | 2163 ft | 189 kts | 221° |
| 2026-05-07 00:27 | 39.83776 | -75.29888 | 2687 ft | 217 kts | 224° |
| 2026-05-07 00:27 | 39.82527 | -75.31277 | 3169 ft | 245 kts | 219° |
| 2026-05-07 00:27 | 39.81106 | -75.32534 | 4111 ft | 250 kts | 210° |
| 2026-05-07 00:27 | 39.79443 | -75.33272 | 4660 ft | 255 kts | 192° |
| 2026-05-07 00:28 | 39.77652 | -75.33461 | 4922 ft | 260 kts | 186° |
| 2026-05-07 00:28 | 39.75844 | -75.33622 | 4968 ft | 269 kts | 185° |
| 2026-05-07 00:28 | 39.73915 | -75.33779 | 5136 ft | 286 kts | 185° |
| 2026-05-07 00:28 | 39.71920 | -75.33941 | 6222 ft | 285 kts | 185° |
| 2026-05-07 00:29 | 39.69936 | -75.34102 | 7242 ft | 291 kts | 185° |
| 2026-05-07 00:29 | 39.67889 | -75.34269 | 8168 ft | 297 kts | 185° |
| 2026-05-07 00:30 | 39.61843 | -75.34760 | 11163 ft | 303 kts | 185° |
| 2026-05-07 00:30 | 39.59677 | -75.34936 | 11704 ft | 321 kts | 185° |
| 2026-05-07 00:30 | 39.57397 | -75.35122 | 11968 ft | 342 kts | 185° |
| 2026-05-07 00:30 | 39.54969 | -75.35319 | 12191 ft | 356 kts | 185° |
| 2026-05-07 00:31 | 39.52490 | -75.35522 | 13113 ft | 357 kts | 185° |
| 2026-05-07 00:31 | 39.49982 | -75.35728 | 13893 ft | 363 kts | 185° |
| 2026-05-07 00:31 | 39.47443 | -75.35935 | 14620 ft | 369 kts | 185° |
| 2026-05-07 00:31 | 39.44857 | -75.36146 | 15344 ft | 374 kts | 185° |
| 2026-05-07 00:32 | 39.42239 | -75.36359 | 16086 ft | 378 kts | 185° |
| 2026-05-07 00:32 | 39.39603 | -75.36572 | 16861 ft | 381 kts | 185° |
| 2026-05-07 00:32 | 39.36949 | -75.36788 | 17700 ft | 379 kts | 185° |
| 2026-05-07 00:32 | 39.34383 | -75.37005 | 18698 ft | 375 kts | 184° |
| 2026-05-07 00:33 | 39.31755 | -75.37213 | 19296 ft | 381 kts | 183° |
| 2026-05-07 00:33 | 39.29054 | -75.37428 | 19952 ft | 384 kts | 182° |
| 2026-05-07 00:33 | 39.26410 | -75.37640 | 20604 ft | 386 kts | 182° |
| 2026-05-07 00:33 | 39.23720 | -75.37857 | 21237 ft | 389 kts | 182° |
| 2026-05-07 00:34 | 39.21020 | -75.38075 | 21840 ft | 391 kts | 183° |
| 2026-05-07 00:34 | 39.18295 | -75.38409 | 22408 ft | 394 kts | 186° |
| 2026-05-07 00:34 | 39.15571 | -75.38878 | 22958 ft | 396 kts | 187° |
| 2026-05-07 00:34 | 39.12831 | -75.39397 | 23501 ft | 398 kts | 187° |
| 2026-05-07 00:35 | 39.10087 | -75.39911 | 24024 ft | 400 kts | 187° |
| 2026-05-07 00:35 | 39.07312 | -75.40424 | 24500 ft | 403 kts | 187° |
| 2026-05-07 00:35 | 39.05441 | -75.40766 | 24784 ft | 405 kts | 187° |
| 2026-05-07 00:35 | 39.02588 | -75.41281 | 25201 ft | 409 kts | 188° |
| 2026-05-07 00:36 | 38.99771 | -75.41790 | 25650 ft | 412 kts | 188° |
| 2026-05-07 00:36 | 38.96921 | -75.42302 | 26079 ft | 414 kts | 188° |
| 2026-05-07 00:36 | 38.94047 | -75.42815 | 26491 ft | 417 kts | 188° |
| 2026-05-07 00:36 | 38.91198 | -75.43322 | 26881 ft | 419 kts | 188° |
| 2026-05-07 00:37 | 38.89278 | -75.43663 | 27132 ft | 421 kts | 188° |
| 2026-05-07 00:37 | 38.85382 | -75.44356 | 27582 ft | 424 kts | 188° |
| 2026-05-07 00:37 | 38.82430 | -75.44881 | 27872 ft | 428 kts | 188° |
| 2026-05-07 00:37 | 38.79472 | -75.45405 | 28214 ft | 430 kts | 188° |
| 2026-05-07 00:38 | 38.76502 | -75.45931 | 28538 ft | 433 kts | 188° |
| 2026-05-07 00:38 | 38.73510 | -75.46459 | 28930 ft | 433 kts | 189° |
| 2026-05-07 00:38 | 38.70529 | -75.46984 | 29384 ft | 432 kts | 189° |
| 2026-05-07 00:38 | 38.67560 | -75.47507 | 29907 ft | 428 kts | 189° |
| 2026-05-07 00:39 | 38.64628 | -75.48025 | 30147 ft | 433 kts | 189° |
| 2026-05-07 00:39 | 38.61629 | -75.48554 | 30356 ft | 437 kts | 189° |
| 2026-05-07 00:39 | 38.58613 | -75.49084 | 30819 ft | 435 kts | 189° |
| 2026-05-07 00:39 | 38.55613 | -75.49610 | 31280 ft | 433 kts | 189° |
| 2026-05-07 00:40 | 38.52641 | -75.50131 | 31693 ft | 431 kts | 189° |
| 2026-05-07 00:40 | 38.49667 | -75.50651 | 32012 ft | 432 kts | 189° |
| 2026-05-07 00:40 | 38.43667 | -75.51698 | 32047 ft | 434 kts | 189° |
| 2026-05-07 00:41 | 38.37726 | -75.52745 | 32038 ft | 430 kts | 190° |
| 2026-05-07 00:41 | 38.31966 | -75.54706 | 32032 ft | 429 kts | 201° |
| 2026-05-07 00:42 | 38.26497 | -75.57756 | 32022 ft | 429 kts | 205° |
| 2026-05-07 00:42 | 38.21105 | -75.60939 | 32009 ft | 429 kts | 205° |
| 2026-05-07 00:43 | 38.15687 | -75.64131 | 31998 ft | 428 kts | 205° |
| 2026-05-07 00:43 | 38.10273 | -75.67313 | 31990 ft | 428 kts | 205° |
| 2026-05-07 00:44 | 38.04856 | -75.70491 | 31988 ft | 428 kts | 205° |
| 2026-05-07 00:44 | 37.99449 | -75.73673 | 31977 ft | 428 kts | 205° |
| 2026-05-07 00:45 | 37.94094 | -75.76819 | 31976 ft | 428 kts | 205° |
| 2026-05-07 00:45 | 37.88716 | -75.79975 | 31977 ft | 428 kts | 205° |
| 2026-05-07 00:46 | 37.83310 | -75.83144 | 31971 ft | 428 kts | 205° |
| 2026-05-07 00:46 | 37.77884 | -75.86307 | 31976 ft | 429 kts | 205° |
| 2026-05-07 00:47 | 37.75172 | -75.87885 | 31640 ft | 430 kts | 205° |
| 2026-05-07 00:47 | 37.72499 | -75.89438 | 31192 ft | 423 kts | 205° |
| 2026-05-07 00:47 | 37.69850 | -75.90975 | 30742 ft | 415 kts | 205° |
| 2026-05-07 00:47 | 37.67250 | -75.92484 | 30363 ft | 407 kts | 205° |
| 2026-05-07 00:48 | 37.64706 | -75.93958 | 29986 ft | 399 kts | 205° |
| 2026-05-07 00:48 | 37.62280 | -75.95616 | 29607 ft | 392 kts | 213° |
| 2026-05-07 00:48 | 37.60137 | -75.97737 | 29227 ft | 392 kts | 222° |
| 2026-05-07 00:48 | 37.58251 | -76.00186 | 28857 ft | 396 kts | 227° |
| 2026-05-07 00:49 | 37.56447 | -76.02823 | 28481 ft | 398 kts | 229° |
| 2026-05-07 00:49 | 37.54650 | -76.05580 | 28102 ft | 402 kts | 229° |
| 2026-05-07 00:49 | 37.52892 | -76.08290 | 27727 ft | 397 kts | 229° |
| 2026-05-07 00:49 | 37.51187 | -76.10921 | 27351 ft | 387 kts | 229° |
| 2026-05-07 00:50 | 37.49525 | -76.13486 | 26975 ft | 373 kts | 228° |
| 2026-05-07 00:50 | 37.47903 | -76.15989 | 26600 ft | 365 kts | 228° |
| 2026-05-07 00:50 | 37.46308 | -76.18461 | 26221 ft | 360 kts | 228° |
| 2026-05-07 00:50 | 37.44744 | -76.20908 | 25844 ft | 357 kts | 228° |
| 2026-05-07 00:51 | 37.43180 | -76.23342 | 25468 ft | 358 kts | 227° |
| 2026-05-07 00:51 | 37.41603 | -76.25787 | 25094 ft | 361 kts | 227° |
| 2026-05-07 00:51 | 37.40010 | -76.28250 | 24719 ft | 364 kts | 227° |
| 2026-05-07 00:51 | 37.38408 | -76.30720 | 24342 ft | 363 kts | 227° |
| 2026-05-07 00:52 | 37.36833 | -76.33174 | 23998 ft | 361 kts | 229° |
| 2026-05-07 00:52 | 37.35408 | -76.35760 | 23933 ft | 358 kts | 233° |
| 2026-05-07 00:52 | 37.34064 | -76.38398 | 23877 ft | 358 kts | 233° |
| 2026-05-07 00:52 | 37.32719 | -76.41036 | 23872 ft | 358 kts | 233° |
| 2026-05-07 00:53 | 37.31380 | -76.43673 | 23866 ft | 358 kts | 233° |
| 2026-05-07 00:53 | 37.30038 | -76.46314 | 23862 ft | 358 kts | 233° |
| 2026-05-07 00:53 | 37.28699 | -76.48951 | 23860 ft | 358 kts | 233° |
| 2026-05-07 00:53 | 37.27374 | -76.51563 | 23860 ft | 358 kts | 233° |
| 2026-05-07 00:54 | 37.26036 | -76.54200 | 23863 ft | 359 kts | 233° |
| 2026-05-07 00:54 | 37.24909 | -76.56419 | 23866 ft | 359 kts | 233° |
| 2026-05-07 00:54 | 37.23561 | -76.59077 | 23573 ft | 361 kts | 234° |
| 2026-05-07 00:54 | 37.22207 | -76.61734 | 23145 ft | 360 kts | 234° |
| 2026-05-07 00:55 | 37.21315 | -76.63483 | 22880 ft | 358 kts | 234° |
| 2026-05-07 00:55 | 37.19535 | -76.66959 | 22349 ft | 355 kts | 234° |
| 2026-05-07 00:55 | 37.18203 | -76.69552 | 21949 ft | 353 kts | 234° |
| 2026-05-07 00:55 | 37.16869 | -76.72138 | 21547 ft | 351 kts | 234° |
| 2026-05-07 00:56 | 37.15973 | -76.73873 | 21276 ft | 350 kts | 234° |
| 2026-05-07 00:56 | 37.14654 | -76.76418 | 20876 ft | 347 kts | 234° |
| 2026-05-07 00:56 | 37.13352 | -76.78922 | 20478 ft | 345 kts | 234° |
| 2026-05-07 00:56 | 37.12038 | -76.81441 | 20077 ft | 343 kts | 234° |
| 2026-05-07 00:57 | 37.10743 | -76.83917 | 19912 ft | 335 kts | 234° |
| 2026-05-07 00:57 | 37.09470 | -76.86354 | 19857 ft | 334 kts | 234° |
| 2026-05-07 00:57 | 37.08193 | -76.88798 | 19855 ft | 336 kts | 234° |
| 2026-05-07 00:57 | 37.06908 | -76.91257 | 19854 ft | 339 kts | 234° |
| 2026-05-07 00:58 | 37.05611 | -76.93737 | 19854 ft | 340 kts | 234° |
| 2026-05-07 00:58 | 37.04323 | -76.96202 | 19854 ft | 340 kts | 234° |
| 2026-05-07 00:58 | 37.03044 | -76.98654 | 19853 ft | 340 kts | 234° |
| 2026-05-07 00:58 | 37.01746 | -77.01140 | 19854 ft | 340 kts | 234° |
| 2026-05-07 00:59 | 36.99168 | -77.06087 | 19854 ft | 340 kts | 234° |
| 2026-05-07 00:59 | 36.97870 | -77.08579 | 19854 ft | 340 kts | 234° |
| 2026-05-07 00:59 | 36.96584 | -77.11048 | 19854 ft | 340 kts | 234° |
| 2026-05-07 01:00 | 36.95295 | -77.13524 | 19854 ft | 339 kts | 234° |
| 2026-05-07 01:00 | 36.94011 | -77.15992 | 19854 ft | 339 kts | 234° |
| 2026-05-07 01:00 | 36.92719 | -77.18474 | 19854 ft | 339 kts | 234° |
| 2026-05-07 01:00 | 36.91308 | -77.20793 | 19859 ft | 343 kts | 226° |
| 2026-05-07 01:01 | 36.89647 | -77.22967 | 19867 ft | 342 kts | 223° |
| 2026-05-07 01:01 | 36.87968 | -77.25055 | 19914 ft | 331 kts | 224° |
| 2026-05-07 01:01 | 36.86351 | -77.27063 | 19716 ft | 326 kts | 224° |
| 2026-05-07 01:01 | 36.84748 | -77.29050 | 18948 ft | 333 kts | 224° |
| 2026-05-07 01:02 | 36.83088 | -77.31109 | 18153 ft | 338 kts | 224° |
| 2026-05-07 01:02 | 36.81425 | -77.33168 | 17511 ft | 336 kts | 225° |
| 2026-05-07 01:02 | 36.79765 | -77.35225 | 16909 ft | 332 kts | 225° |
| 2026-05-07 01:02 | 36.78126 | -77.37252 | 16359 ft | 333 kts | 225° |
| 2026-05-07 01:03 | 36.76494 | -77.39270 | 15988 ft | 329 kts | 225° |
| 2026-05-07 01:03 | 36.74892 | -77.41251 | 15652 ft | 325 kts | 225° |
| 2026-05-07 01:03 | 36.73268 | -77.43257 | 15390 ft | 325 kts | 225° |
| 2026-05-07 01:03 | 36.71659 | -77.45243 | 15157 ft | 335 kts | 225° |
| 2026-05-07 01:04 | 36.69981 | -77.47313 | 14951 ft | 332 kts | 225° |
| 2026-05-07 01:04 | 36.68379 | -77.49289 | 14751 ft | 324 kts | 225° |
| 2026-05-07 01:04 | 36.66784 | -77.51255 | 14553 ft | 322 kts | 225° |
| 2026-05-07 01:04 | 36.65195 | -77.53228 | 14350 ft | 319 kts | 225° |
| 2026-05-07 01:05 | 36.63630 | -77.55169 | 14150 ft | 316 kts | 225° |
| 2026-05-07 01:05 | 36.62076 | -77.57094 | 13949 ft | 315 kts | 225° |
| 2026-05-07 01:05 | 36.60521 | -77.59017 | 13748 ft | 314 kts | 225° |
| 2026-05-07 01:05 | 36.58989 | -77.60909 | 13550 ft | 313 kts | 225° |
| 2026-05-07 01:06 | 36.57442 | -77.62818 | 13349 ft | 312 kts | 225° |
| 2026-05-07 01:06 | 36.55903 | -77.64715 | 13149 ft | 311 kts | 225° |
| 2026-05-07 01:06 | 36.54364 | -77.66609 | 12949 ft | 310 kts | 225° |
| 2026-05-07 01:06 | 36.52828 | -77.68499 | 12747 ft | 309 kts | 225° |
| 2026-05-07 01:07 | 36.51300 | -77.70376 | 12547 ft | 308 kts | 225° |
| 2026-05-07 01:07 | 36.49777 | -77.72247 | 12347 ft | 307 kts | 225° |
| 2026-05-07 01:07 | 36.48263 | -77.74105 | 12147 ft | 307 kts | 225° |
| 2026-05-07 01:07 | 36.46745 | -77.75968 | 11946 ft | 306 kts | 225° |
| 2026-05-07 01:08 | 36.45237 | -77.77829 | 11745 ft | 305 kts | 225° |
| 2026-05-07 01:08 | 36.43750 | -77.79661 | 11547 ft | 304 kts | 225° |
| 2026-05-07 01:08 | 36.42244 | -77.81510 | 11346 ft | 303 kts | 225° |
| 2026-05-07 01:08 | 36.40751 | -77.83341 | 11146 ft | 302 kts | 224° |
| 2026-05-07 01:09 | 36.39254 | -77.85172 | 10945 ft | 301 kts | 224° |
| 2026-05-07 01:09 | 36.37765 | -77.86990 | 10745 ft | 300 kts | 224° |
| 2026-05-07 01:09 | 36.36274 | -77.88810 | 10544 ft | 299 kts | 224° |
| 2026-05-07 01:09 | 36.34808 | -77.90597 | 10346 ft | 298 kts | 224° |
| 2026-05-07 01:10 | 36.33327 | -77.92401 | 10145 ft | 297 kts | 224° |
| 2026-05-07 01:10 | 36.31860 | -77.94186 | 10077 ft | 295 kts | 224° |
| 2026-05-07 01:10 | 36.30387 | -77.95978 | 10073 ft | 296 kts | 224° |
| 2026-05-07 01:10 | 36.28916 | -77.97767 | 10072 ft | 297 kts | 224° |
| 2026-05-07 01:11 | 36.27437 | -77.99564 | 10072 ft | 297 kts | 224° |
| 2026-05-07 01:11 | 36.25961 | -78.01359 | 10072 ft | 297 kts | 224° |
| 2026-05-07 01:11 | 36.24501 | -78.03136 | 10062 ft | 288 kts | 225° |
| 2026-05-07 01:11 | 36.23223 | -78.05046 | 10064 ft | 289 kts | 235° |
| 2026-05-07 01:12 | 36.22201 | -78.07157 | 10067 ft | 281 kts | 242° |
| 2026-05-07 01:12 | 36.21347 | -78.09286 | 9996 ft | 271 kts | 245° |
| 2026-05-07 01:12 | 36.20633 | -78.11398 | 9724 ft | 262 kts | 248° |
| 2026-05-07 01:12 | 36.19957 | -78.13503 | 9200 ft | 267 kts | 248° |
| 2026-05-07 01:13 | 36.19265 | -78.15635 | 9009 ft | 263 kts | 248° |
| 2026-05-07 01:13 | 36.18595 | -78.17670 | 8939 ft | 254 kts | 248° |
| 2026-05-07 01:13 | 36.17929 | -78.19675 | 8876 ft | 249 kts | 248° |
| 2026-05-07 01:13 | 36.17273 | -78.21638 | 8865 ft | 244 kts | 248° |
| 2026-05-07 01:14 | 36.16626 | -78.23567 | 8848 ft | 243 kts | 247° |
| 2026-05-07 01:14 | 36.15970 | -78.25520 | 8574 ft | 249 kts | 247° |
| 2026-05-07 01:14 | 36.15310 | -78.27489 | 8321 ft | 241 kts | 248° |
| 2026-05-07 01:14 | 36.14786 | -78.29420 | 7894 ft | 240 kts | 255° |
| 2026-05-07 01:15 | 36.14411 | -78.31471 | 7516 ft | 241 kts | 258° |
| 2026-05-07 01:15 | 36.14081 | -78.33473 | 7144 ft | 239 kts | 258° |
| 2026-05-07 01:15 | 36.13739 | -78.35469 | 6771 ft | 238 kts | 258° |
| 2026-05-07 01:15 | 36.13389 | -78.37464 | 6395 ft | 236 kts | 257° |
| 2026-05-07 01:16 | 36.13039 | -78.39442 | 6019 ft | 235 kts | 257° |
| 2026-05-07 01:16 | 36.12690 | -78.41412 | 5643 ft | 234 kts | 257° |
| 2026-05-07 01:16 | 36.12336 | -78.43378 | 5265 ft | 232 kts | 257° |
| 2026-05-07 01:16 | 36.11985 | -78.45307 | 5117 ft | 228 kts | 257° |
| 2026-05-07 01:17 | 36.11638 | -78.47217 | 5070 ft | 227 kts | 257° |
| 2026-05-07 01:17 | 36.11290 | -78.49132 | 5071 ft | 229 kts | 257° |
| 2026-05-07 01:17 | 36.10943 | -78.51046 | 5072 ft | 232 kts | 257° |
| 2026-05-07 01:17 | 36.10225 | -78.52802 | 5043 ft | 231 kts | 226° |
| 2026-05-07 01:18 | 36.09054 | -78.54092 | 5069 ft | 218 kts | 220° |
| 2026-05-07 01:18 | 36.07918 | -78.55239 | 5033 ft | 202 kts | 220° |
| 2026-05-07 01:18 | 36.06873 | -78.56341 | 5048 ft | 191 kts | 221° |
| 2026-05-07 01:18 | 36.05904 | -78.57446 | 4926 ft | 190 kts | 223° |
| 2026-05-07 01:19 | 36.04950 | -78.58580 | 4687 ft | 188 kts | 224° |
| 2026-05-07 01:19 | 36.04028 | -78.59697 | 4435 ft | 186 kts | 224° |
| 2026-05-07 01:19 | 36.03113 | -78.60818 | 4186 ft | 184 kts | 225° |
| 2026-05-07 01:19 | 36.02209 | -78.61931 | 3942 ft | 184 kts | 225° |
| 2026-05-07 01:20 | 36.01307 | -78.63046 | 3699 ft | 184 kts | 225° |
| 2026-05-07 01:20 | 36.00402 | -78.64167 | 3454 ft | 183 kts | 225° |
| 2026-05-07 01:20 | 35.99511 | -78.65270 | 3213 ft | 182 kts | 225° |
| 2026-05-07 01:20 | 35.98618 | -78.66376 | 2971 ft | 181 kts | 225° |
| 2026-05-07 01:21 | 35.97726 | -78.67481 | 2730 ft | 181 kts | 225° |
| 2026-05-07 01:21 | 35.96852 | -78.68563 | 2493 ft | 180 kts | 225° |
| 2026-05-07 01:21 | 35.95970 | -78.69655 | 2263 ft | 178 kts | 225° |
| 2026-05-07 01:21 | 35.95097 | -78.70735 | 2024 ft | 178 kts | 225° |
| 2026-05-07 01:22 | 35.94223 | -78.71817 | 1790 ft | 176 kts | 225° |
| 2026-05-07 01:22 | 35.93378 | -78.72863 | 1551 ft | 166 kts | 225° |
| 2026-05-07 01:22 | 35.92584 | -78.73845 | 1329 ft | 158 kts | 225° |
| 2026-05-07 01:22 | 35.91816 | -78.74795 | 1132 ft | 153 kts | 225° |
| 2026-05-07 01:23 | 35.91081 | -78.75704 | 937 ft | 150 kts | 225° |
| 2026-05-07 01:23 | 35.90340 | -78.76620 | 739 ft | 150 kts | 225° |
| 2026-05-07 01:23 | 35.89604 | -78.77528 | 568 ft | 147 kts | 225° |
| 2026-05-07 01:23 | 35.88914 | -78.78380 | 443 ft | 126 kts | 225° |
| 2026-05-07 01:24 | 35.88438 | -78.78968 | 443 ft | 67 kts | 225° |
| 2026-05-07 01:24 | 35.88241 | -78.79211 | 443 ft | 21 kts | 225° |
| 2026-05-07 01:24 | 35.88148 | -78.79326 | 443 ft | 17 kts | 225° |
| 2026-05-07 01:24 | 35.88065 | -78.79342 | 443 ft | 10 kts | 167° |